createdAt,value
2022-11-14T00:02:10.708Z,3.81
2022-11-14T00:04:56.400Z,3.66
2022-11-14T00:07:42.191Z,3.76
2022-11-14T00:10:28.140Z,3.75
2022-11-14T00:13:14.951Z,3.71
2022-11-14T00:16:00.867Z,3.71
2022-11-14T00:18:48.067Z,3.79
2022-11-14T00:21:34.231Z,3.80
2022-11-14T00:24:20.366Z,3.80
2022-11-14T00:27:06.228Z,3.60
2022-11-14T00:29:53.065Z,3.77
2022-11-14T00:32:39.115Z,3.55
2022-11-14T00:35:25.064Z,3.78
2022-11-14T00:38:10.944Z,3.63
2022-11-14T00:40:56.846Z,3.30
2022-11-14T00:43:42.708Z,3.34
2022-11-14T00:46:28.625Z,3.50
2022-11-14T00:49:14.575Z,3.33
2022-11-14T00:52:00.460Z,3.32
2022-11-14T00:54:46.202Z,3.22
2022-11-14T00:57:32.135Z,3.26
2022-11-14T01:00:18.105Z,3.21
2022-11-14T01:03:04.166Z,2.93
2022-11-14T01:05:51.638Z,3.18
2022-11-14T01:08:37.375Z,3.19
2022-11-14T01:11:23.751Z,3.11
2022-11-14T01:14:10.417Z,3.19
2022-11-14T01:16:56.356Z,3.06
2022-11-14T01:19:43.469Z,2.76
2022-11-14T01:22:30.648Z,3.17
2022-11-14T01:25:16.569Z,3.02
2022-11-14T01:28:02.541Z,3.17
2022-11-14T01:30:48.831Z,3.01
2022-11-14T01:33:34.855Z,3.03
2022-11-14T01:36:21.217Z,3.12
2022-11-14T01:39:07.075Z,3.00
2022-11-14T01:41:53.073Z,3.08
2022-11-14T01:44:46.326Z,2.94
2022-11-14T01:47:33.702Z,3.03
2022-11-14T01:50:19.822Z,2.90
2022-11-14T01:53:05.587Z,2.95
2022-11-14T01:55:55.057Z,3.06
2022-11-14T01:58:44.878Z,3.09
2022-11-14T02:01:34.191Z,3.05
2022-11-14T02:04:30.550Z,2.89
2022-11-14T02:07:17.615Z,2.76
2022-11-14T02:10:11.357Z,3.13
2022-11-14T02:12:57.211Z,2.91
2022-11-14T02:15:43.280Z,2.93
2022-11-14T02:18:29.177Z,2.66
2022-11-14T02:21:15.202Z,2.44
2022-11-14T02:24:01.185Z,2.51
2022-11-14T02:26:47.206Z,2.52
2022-11-14T02:29:34.504Z,2.45
2022-11-14T02:32:20.531Z,2.43
2022-11-14T02:35:06.287Z,2.46
2022-11-14T02:37:52.074Z,2.34
2022-11-14T02:40:38.115Z,2.29
2022-11-14T02:43:23.974Z,2.19
2022-11-14T02:46:10.282Z,2.18
2022-11-14T02:48:56.174Z,2.32
2022-11-14T02:51:41.994Z,2.39
2022-11-14T02:54:27.996Z,2.14
2022-11-14T02:57:13.765Z,2.16
2022-11-14T02:59:59.726Z,2.21
2022-11-14T03:02:45.684Z,2.11
2022-11-14T03:05:31.619Z,2.14
2022-11-14T03:08:17.673Z,2.10
2022-11-14T03:11:05.349Z,2.00
2022-11-14T03:13:51.458Z,2.04
2022-11-14T03:16:37.359Z,2.01
2022-11-14T03:19:23.315Z,1.80
2022-11-14T03:22:09.235Z,1.88
2022-11-14T03:24:55.015Z,1.84
2022-11-14T03:27:40.941Z,1.83
2022-11-14T03:30:26.847Z,1.81
2022-11-14T03:33:12.666Z,1.75
2022-11-14T03:35:58.652Z,1.57
2022-11-14T03:38:44.632Z,1.54
2022-11-14T03:41:30.919Z,1.64
2022-11-14T03:44:16.971Z,1.64
2022-11-14T03:47:02.597Z,1.52
2022-11-14T03:49:48.355Z,1.50
2022-11-14T03:52:34.236Z,1.49
2022-11-14T03:55:20.235Z,1.50
2022-11-14T03:58:05.961Z,1.42
2022-11-14T04:00:51.890Z,1.40
2022-11-14T04:03:37.647Z,1.41
2022-11-14T04:06:23.674Z,1.48
2022-11-14T04:09:10.507Z,1.30
2022-11-14T04:11:56.358Z,1.33
2022-11-14T04:14:42.360Z,1.16
2022-11-14T04:17:28.326Z,1.23
2022-11-14T04:20:14.954Z,1.25
2022-11-14T04:23:01.131Z,0.96
2022-11-14T04:25:47.463Z,1.23
2022-11-14T04:28:33.464Z,1.10
2022-11-14T04:31:19.438Z,1.21
2022-11-14T04:34:05.300Z,1.10
2022-11-14T04:36:53.944Z,1.22
2022-11-14T04:39:39.713Z,1.08
2022-11-14T04:42:26.076Z,1.04
2022-11-14T04:45:11.698Z,1.18
2022-11-14T04:47:57.517Z,1.13
2022-11-14T04:50:45.666Z,1.10
2022-11-14T04:53:31.310Z,0.95
2022-11-14T04:56:17.261Z,0.99
2022-11-14T04:59:03.167Z,0.89
2022-11-14T05:01:49.300Z,0.86
2022-11-14T05:04:35.200Z,0.72
2022-11-14T05:07:21.129Z,0.78
2022-11-14T05:10:07.571Z,0.57
2022-11-14T05:12:54.603Z,0.88
2022-11-14T05:15:40.383Z,1.20
2022-11-14T05:18:26.270Z,1.22
2022-11-14T05:21:16.234Z,0.97
2022-11-14T05:24:02.026Z,1.22
2022-11-14T05:26:47.784Z,0.57
2022-11-14T05:29:33.878Z,0.83
2022-11-14T05:32:19.438Z,0.93
2022-11-14T05:35:05.939Z,0.83
2022-11-14T05:37:54.880Z,0.77
2022-11-14T05:40:43.011Z,0.58
2022-11-14T05:43:29.658Z,0.59
2022-11-14T05:46:16.859Z,0.61
2022-11-14T05:49:02.849Z,0.55
2022-11-14T05:51:48.803Z,0.49
2022-11-14T05:54:34.750Z,0.53
2022-11-14T05:57:20.660Z,0.62
2022-11-14T06:00:07.525Z,0.50
2022-11-14T06:02:56.868Z,0.60
2022-11-14T06:05:43.076Z,0.61
2022-11-14T06:08:29.888Z,0.66
2022-11-14T06:11:18.689Z,0.67
2022-11-14T06:14:08.253Z,0.72
2022-11-14T06:16:56.576Z,0.72
2022-11-14T06:19:42.330Z,0.71
2022-11-14T06:22:28.215Z,0.79
2022-11-14T06:25:14.106Z,0.76
2022-11-14T06:27:59.986Z,0.76
2022-11-14T06:30:45.918Z,0.89
2022-11-14T06:33:36.574Z,0.92
2022-11-14T06:36:22.592Z,1.01
2022-11-14T06:39:08.427Z,0.86
2022-11-14T06:41:54.355Z,0.78
2022-11-14T06:44:40.349Z,0.93
2022-11-14T06:47:26.219Z,1.09
2022-11-14T06:50:12.153Z,1.14
2022-11-14T06:52:58.654Z,1.19
2022-11-14T06:55:55.423Z,1.17
2022-11-14T06:58:45.517Z,1.40
2022-11-14T07:01:31.505Z,1.21
2022-11-14T07:04:17.395Z,1.27
2022-11-14T07:07:03.060Z,1.43
2022-11-14T07:09:49.049Z,1.63
2022-11-14T07:12:34.648Z,1.44
2022-11-14T07:15:20.531Z,1.51
2022-11-14T07:18:06.323Z,1.57
2022-11-14T07:21:05.441Z,1.86
2022-11-14T07:23:51.554Z,1.72
2022-11-14T07:26:37.618Z,1.91
2022-11-14T07:29:23.560Z,2.20
2022-11-14T07:32:09.390Z,2.19
2022-11-14T07:35:00.772Z,2.15
2022-11-14T07:37:48.674Z,2.05
2022-11-14T07:40:34.538Z,2.13
2022-11-14T07:43:20.816Z,2.45
2022-11-14T07:46:15.371Z,2.65
2022-11-14T07:49:01.512Z,2.82
2022-11-14T07:51:47.689Z,2.83
2022-11-14T07:54:33.444Z,3.11
2022-11-14T07:57:19.487Z,3.18
2022-11-14T08:00:05.692Z,3.12
2022-11-14T08:02:52.082Z,3.21
2022-11-14T08:05:38.331Z,3.22
2022-11-14T08:08:23.863Z,2.98
2022-11-14T08:11:12.868Z,3.12
2022-11-14T08:13:58.624Z,3.12
2022-11-14T08:16:47.042Z,3.45
2022-11-14T08:19:32.735Z,3.72
2022-11-14T08:22:18.691Z,3.80
2022-11-14T08:25:05.136Z,3.68
2022-11-14T08:27:51.003Z,3.72
2022-11-14T08:30:37.046Z,3.89
2022-11-14T08:33:22.825Z,3.82
2022-11-14T08:36:10.603Z,4.61
2022-11-14T08:39:01.636Z,4.90
2022-11-14T08:41:47.970Z,4.54
2022-11-14T08:44:33.687Z,4.79
2022-11-14T08:47:19.536Z,4.73
2022-11-14T08:50:05.850Z,4.63
2022-11-14T08:52:52.278Z,5.14
2022-11-14T08:55:38.160Z,5.43
2022-11-14T08:58:23.886Z,5.59
2022-11-14T09:01:13.008Z,5.12
2022-11-14T09:04:00.440Z,4.98
2022-11-14T09:06:46.886Z,5.21
2022-11-14T09:09:33.017Z,5.33
2022-11-14T09:12:19.279Z,5.71
2022-11-14T09:15:05.544Z,5.67
2022-11-14T09:17:58.003Z,5.78
2022-11-14T09:20:44.082Z,5.96
2022-11-14T09:23:30.418Z,5.87
2022-11-14T09:26:18.369Z,5.79
2022-11-14T09:29:06.526Z,5.79
2022-11-14T09:31:53.210Z,6.00
2022-11-14T09:34:43.039Z,6.10
2022-11-14T09:37:28.718Z,6.69
2022-11-14T09:40:14.646Z,6.68
2022-11-14T09:43:13.942Z,7.14
2022-11-14T09:45:59.827Z,7.18
2022-11-14T09:48:45.855Z,7.16
2022-11-14T09:51:37.007Z,7.10
2022-11-14T09:54:26.511Z,7.40
2022-11-14T09:57:18.845Z,7.38
2022-11-14T10:00:17.387Z,7.74
2022-11-14T10:03:36.195Z,7.89
2022-11-14T10:06:30.287Z,7.97
2022-11-14T10:09:40.368Z,7.62
2022-11-14T10:13:03.997Z,7.88
2022-11-14T10:16:11.683Z,8.05
2022-11-14T10:19:43.035Z,8.41
2022-11-14T10:23:00.083Z,8.64
2022-11-14T10:25:46.818Z,8.72
2022-11-14T10:29:14.350Z,8.70
2022-11-14T10:32:05.479Z,8.96
2022-11-14T10:35:03.890Z,9.29
2022-11-14T10:38:19.101Z,9.26
2022-11-14T10:41:07.154Z,9.32
2022-11-14T10:43:55.197Z,9.44
2022-11-14T10:46:48.295Z,9.44
2022-11-14T10:49:37.195Z,9.74
2022-11-14T10:52:35.992Z,9.78
2022-11-14T10:55:37.154Z,9.92
2022-11-14T10:58:28.354Z,10.00
2022-11-14T11:01:35.667Z,10.48
2022-11-14T11:04:29.377Z,10.57
2022-11-14T11:07:43.696Z,10.74
2022-11-14T11:10:49.587Z,10.71
2022-11-14T11:13:41.117Z,10.76
2022-11-14T11:16:29.075Z,10.95
2022-11-14T11:19:26.177Z,10.92
2022-11-14T11:22:24.221Z,11.21
2022-11-14T11:25:24.997Z,11.23
2022-11-14T11:28:19.865Z,11.25
2022-11-14T11:31:08.634Z,11.37
2022-11-14T11:33:55.521Z,11.32
2022-11-14T11:36:47.738Z,11.26
2022-11-14T11:39:42.139Z,11.45
2022-11-14T11:46:26.879Z,11.14
2022-11-14T11:49:17.894Z,11.53
2022-11-14T11:52:16.124Z,11.42
2022-11-14T11:55:02.296Z,11.48
2022-11-14T11:57:59.160Z,11.52
2022-11-14T12:00:45.100Z,11.69
2022-11-14T12:03:31.216Z,11.68
2022-11-14T12:06:24.956Z,11.70
2022-11-14T12:10:08.720Z,11.79
2022-11-14T12:12:44.230Z,11.79
2022-11-14T12:15:50.763Z,11.79
2022-11-14T12:18:48.434Z,11.90
2022-11-14T12:21:46.270Z,11.90
2022-11-14T12:24:41.910Z,11.89
2022-11-14T12:27:39.607Z,12.09
2022-11-14T12:30:27.334Z,11.75
2022-11-14T12:33:36.013Z,11.90
2022-11-14T12:36:29.996Z,11.86
2022-11-14T12:39:28.706Z,11.73
2022-11-14T12:42:21.154Z,11.79
2022-11-14T12:45:41.112Z,11.79
2022-11-14T12:48:31.326Z,11.76
2022-11-14T12:51:26.861Z,11.82
2022-11-14T12:54:45.368Z,11.77
2022-11-14T12:57:50.118Z,11.79
2022-11-14T13:01:02.398Z,11.86
2022-11-14T13:04:08.842Z,11.79
2022-11-14T13:07:16.459Z,11.71
2022-11-14T13:10:14.692Z,11.54
2022-11-14T13:13:39.578Z,11.19
2022-11-14T13:16:49.900Z,11.48
2022-11-14T13:20:04.544Z,11.42
2022-11-14T13:22:50.431Z,11.50
2022-11-14T13:25:36.459Z,11.43
2022-11-14T13:28:50.108Z,11.22
2022-11-14T13:31:35.961Z,11.60
2022-11-14T13:34:43.482Z,11.48
2022-11-14T13:38:11.031Z,11.28
2022-11-14T13:41:08.662Z,11.26
2022-11-14T13:44:31.732Z,11.15
2022-11-14T13:48:12.947Z,11.25
2022-11-14T13:51:36.283Z,11.20
2022-11-14T13:54:17.832Z,11.08
2022-11-14T13:57:28.822Z,10.99
2022-11-14T14:00:20.664Z,10.99
2022-11-14T14:03:37.989Z,10.63
2022-11-14T14:06:33.011Z,10.71
2022-11-14T14:10:06.842Z,10.61
2022-11-14T14:13:36.958Z,10.55
2022-11-14T14:16:34.382Z,10.42
2022-11-14T14:19:38.266Z,10.34
2022-11-14T14:23:09.458Z,10.33
2022-11-14T14:26:14.850Z,10.23
2022-11-14T14:29:13.263Z,10.04
2022-11-14T14:32:14.942Z,9.94
2022-11-14T14:35:13.520Z,9.90
2022-11-14T14:37:59.772Z,9.73
2022-11-14T14:40:47.610Z,9.70
2022-11-14T14:43:36.516Z,9.63
2022-11-14T14:46:29.440Z,9.56
2022-11-14T14:49:22.200Z,9.61
2022-11-14T14:52:41.087Z,9.41
2022-11-14T14:55:28.810Z,9.27
2022-11-14T14:58:24.820Z,9.24
2022-11-14T15:01:20.593Z,9.06
2022-11-14T15:04:08.288Z,8.92
2022-11-14T15:06:58.528Z,8.56
2022-11-14T15:09:59.441Z,8.74
2022-11-14T15:12:45.339Z,8.47
2022-11-14T15:15:33.577Z,8.35
2022-11-14T15:18:31.634Z,8.36
2022-11-14T15:21:20.840Z,8.26
2022-11-14T15:24:18.856Z,8.13
2022-11-14T15:27:24.940Z,7.80
2022-11-14T15:30:27.058Z,8.00
2022-11-14T15:33:35.231Z,7.81
2022-11-14T15:37:06.072Z,7.67
2022-11-14T15:39:51.863Z,7.51
2022-11-14T15:42:37.936Z,7.38
2022-11-14T15:45:26.057Z,7.32
2022-11-14T15:48:19.108Z,7.37
2022-11-14T15:51:04.953Z,7.17
2022-11-14T15:53:53.447Z,7.01
2022-11-14T15:56:39.217Z,7.26
2022-11-14T15:59:26.230Z,7.09
2022-11-14T16:02:21.092Z,6.99
2022-11-14T16:05:10.251Z,6.78
2022-11-14T16:07:56.774Z,6.78
2022-11-14T16:10:42.752Z,6.67
2022-11-14T16:13:28.918Z,6.62
2022-11-14T16:16:15.064Z,6.70
2022-11-14T16:19:01.027Z,6.74
2022-11-14T16:21:46.896Z,6.60
2022-11-14T16:24:34.400Z,6.43
2022-11-14T16:27:20.252Z,6.35
2022-11-14T16:30:06.712Z,6.39
2022-11-14T16:32:52.595Z,6.35
2022-11-14T16:35:38.457Z,6.08
2022-11-14T16:38:24.577Z,6.15
2022-11-14T16:41:19.842Z,6.19
2022-11-14T16:44:06.600Z,5.94
2022-11-14T16:46:52.549Z,5.92
2022-11-14T16:49:38.490Z,5.85
2022-11-14T16:52:24.151Z,5.92
2022-11-14T16:55:11.425Z,5.95
2022-11-14T16:57:57.466Z,5.87
2022-11-14T17:00:43.971Z,5.80
2022-11-14T17:03:32.336Z,5.77
2022-11-14T17:06:19.034Z,5.74
2022-11-14T17:09:05.256Z,5.59
2022-11-14T17:11:51.351Z,5.54
2022-11-14T17:14:36.939Z,5.42
2022-11-14T17:17:22.951Z,5.40
2022-11-14T17:20:10.814Z,5.41
2022-11-14T17:22:56.667Z,5.24
2022-11-14T17:25:42.489Z,5.21
2022-11-14T17:28:28.640Z,5.23
2022-11-14T17:31:15.936Z,5.08
2022-11-14T17:34:03.063Z,5.00
2022-11-14T17:36:49.176Z,5.10
2022-11-14T17:39:35.265Z,5.02
2022-11-14T17:42:21.367Z,4.91
2022-11-14T17:45:07.766Z,4.95
2022-11-14T17:47:53.642Z,5.04
2022-11-14T17:50:40.505Z,4.94
2022-11-14T17:53:26.416Z,4.89
2022-11-14T17:56:18.000Z,4.99
2022-11-14T17:59:03.595Z,4.87
2022-11-14T18:01:49.666Z,4.87
2022-11-14T18:04:36.106Z,4.66
2022-11-14T18:07:22.371Z,4.63
2022-11-14T18:10:08.498Z,4.75
2022-11-14T18:12:54.378Z,4.63
2022-11-14T18:15:40.597Z,4.59
2022-11-14T18:18:26.548Z,4.59
2022-11-14T18:21:15.469Z,4.63
2022-11-14T18:24:01.392Z,4.44
2022-11-14T18:26:47.098Z,4.40
2022-11-14T18:29:32.998Z,4.54
2022-11-14T18:32:20.772Z,4.35
2022-11-14T18:35:07.187Z,4.22
2022-11-14T18:37:53.622Z,4.40
2022-11-14T18:40:43.525Z,4.26
2022-11-14T18:43:32.463Z,4.32
2022-11-14T18:46:21.832Z,4.37
2022-11-14T18:49:07.986Z,4.05
2022-11-14T18:51:55.026Z,4.20
2022-11-14T18:54:41.107Z,4.10
2022-11-14T18:57:27.120Z,4.20
2022-11-14T19:00:13.768Z,4.18
2022-11-14T19:03:04.841Z,4.17
2022-11-14T19:05:52.208Z,4.05
2022-11-14T19:08:39.630Z,4.05
2022-11-14T19:11:43.652Z,3.94
2022-11-14T19:14:29.731Z,4.14
2022-11-14T19:17:20.653Z,3.97
2022-11-14T19:20:12.905Z,3.90
2022-11-14T19:23:00.844Z,3.94
2022-11-14T19:25:46.802Z,3.83
2022-11-14T19:28:32.615Z,3.94
2022-11-14T19:31:20.299Z,4.05
2022-11-14T19:34:06.404Z,3.94
2022-11-14T19:36:59.929Z,3.97
2022-11-14T19:39:46.138Z,3.93
2022-11-14T19:42:32.108Z,4.03
2022-11-14T19:45:18.047Z,3.95
2022-11-14T19:48:05.573Z,4.00
2022-11-14T19:50:59.374Z,3.92
2022-11-14T19:53:46.244Z,3.92
2022-11-14T19:56:32.270Z,4.07
2022-11-14T19:59:23.965Z,3.89
2022-11-14T20:02:14.011Z,3.88
2022-11-14T20:04:59.745Z,3.88
2022-11-14T20:07:45.738Z,3.95
2022-11-14T20:10:31.675Z,3.92
2022-11-14T20:13:17.570Z,4.03
2022-11-14T20:16:33.250Z,4.03
2022-11-14T20:19:19.443Z,4.13
2022-11-14T20:22:06.592Z,4.15
2022-11-14T20:24:52.652Z,4.30
2022-11-14T20:27:38.836Z,4.26
2022-11-14T20:30:25.153Z,4.24
2022-11-14T20:33:11.386Z,4.35
2022-11-14T20:36:05.721Z,4.39
2022-11-14T20:38:52.964Z,4.32
2022-11-14T20:41:38.769Z,4.44
2022-11-14T20:44:24.755Z,4.18
2022-11-14T20:47:11.346Z,4.43
2022-11-14T20:49:57.361Z,4.27
2022-11-14T20:52:46.626Z,4.27
2022-11-14T20:55:32.142Z,4.41
2022-11-14T20:58:17.942Z,4.39
2022-11-14T21:01:04.221Z,4.44
2022-11-14T21:03:49.963Z,4.41
2022-11-14T21:06:35.798Z,4.50
2022-11-14T21:09:21.901Z,4.49
2022-11-14T21:12:07.809Z,4.49
2022-11-14T21:14:53.814Z,4.47
2022-11-14T21:17:39.639Z,4.37
2022-11-14T21:20:25.543Z,4.41
2022-11-14T21:23:11.363Z,4.40
2022-11-14T21:26:18.956Z,4.59
2022-11-14T21:29:11.477Z,4.40
2022-11-14T21:31:57.574Z,4.65
2022-11-14T21:34:43.487Z,4.45
2022-11-14T21:37:29.706Z,4.59
2022-11-14T21:40:15.853Z,4.49
2022-11-14T21:43:01.391Z,4.66
2022-11-14T21:45:55.168Z,4.58
2022-11-14T21:48:41.781Z,4.56
2022-11-14T21:51:29.002Z,4.61
2022-11-14T21:54:15.023Z,4.51
2022-11-14T21:57:04.261Z,4.63
2022-11-14T21:59:52.734Z,4.61
2022-11-14T22:03:04.673Z,4.56
2022-11-14T22:05:55.984Z,4.56
2022-11-14T22:08:41.988Z,4.60
2022-11-14T22:11:28.302Z,4.52
2022-11-14T22:14:14.392Z,4.51
2022-11-14T22:17:00.224Z,4.08
2022-11-14T22:19:46.415Z,4.35
2022-11-14T22:22:33.099Z,4.34
2022-11-14T22:25:19.161Z,4.36
2022-11-14T22:28:05.351Z,4.39
2022-11-14T22:31:15.765Z,4.28
2022-11-14T22:34:02.030Z,4.23
2022-11-14T22:36:47.998Z,4.18
2022-11-14T22:39:34.102Z,4.07
2022-11-14T22:42:19.989Z,4.13
2022-11-14T22:45:06.314Z,4.04
2022-11-14T22:47:57.528Z,4.15
2022-11-14T22:50:43.229Z,4.19
2022-11-14T22:53:34.059Z,4.04
2022-11-14T22:56:23.040Z,4.09
2022-11-14T22:59:08.491Z,4.00
2022-11-14T23:01:55.481Z,3.94
2022-11-14T23:04:41.277Z,3.81
2022-11-14T23:07:27.262Z,3.81
2022-11-14T23:10:13.146Z,3.65
2022-11-14T23:12:59.161Z,3.73
2022-11-14T23:15:48.190Z,3.62
2022-11-14T23:18:34.039Z,3.66
2022-11-14T23:21:46.682Z,3.73
2022-11-14T23:24:32.978Z,3.54
2022-11-14T23:27:18.768Z,3.47
2022-11-14T23:30:05.177Z,3.44
2022-11-14T23:32:51.137Z,3.57
2022-11-14T23:35:36.995Z,3.51
2022-11-14T23:38:23.334Z,3.63
2022-11-14T23:41:16.206Z,3.53
2022-11-14T23:44:02.278Z,3.49
2022-11-14T23:46:48.146Z,3.52
2022-11-14T23:49:33.939Z,3.53
2022-11-14T23:52:19.788Z,3.45
2022-11-14T23:55:06.055Z,3.59
2022-11-14T23:57:51.733Z,3.59
